Decoded Metar for KSGH (SPRINGFIELD MUNI in OH, USA) (IATA:SGH) | Meteo·Mobile Aviation Weather
aviador You're here:

KSGH Decoded Metar

SPRINGFIELD MUNI in OH, USA
Report Time2019-01-21 22:56:00
UTC Time2019-01-21 23:43:19
Flight Rules vfr VFR
Wind090° at 04 kt
W.Decomp.*RWY 06: 3.3 kt HW 2.2 kt RCW
RWY 15: 2.2 kt HW 3.3 kt LCW
W.Rank090° ranks 19
Current wind is below 090° avg. (6.8)
Visibility9999 m
Phenomena:N/A
Clouds:N/A
Expected CloudBase > 800 ft AGL from Temp-Dew spread
CeilingNone
Temp-17°C (ISA -30)
Dew Point-19°C (85% RH)
AAT-22.0°C
QNH1034 hPa
Density Alt-3,438 ft
Elevation1,053 ft
Report Wrong Elevation
Raw Report
KSGH 212256Z AUTO 09004KT 10SM CLR M17/M19 A3054 RMK AO2 SLP374
T11671189=

Extra information for KSGH:More info

Metar Taf Metar & Taf Last 4 Metars F.Rules Stats Wind Profile Meteogram Temp Stats Airport Information Weather charts Add Link Nearby VenuesMetar ALERT Operation Metar Decoded Social comments

AIRNAV info for KSGH